createdAt,value
2022-09-22T00:00:00.405Z,15.60
2022-09-22T00:01:02.009Z,15.55
2022-09-22T00:02:00.386Z,15.55
2022-09-22T00:03:00.299Z,15.55
2022-09-22T00:04:01.315Z,15.55
2022-09-22T00:05:00.286Z,15.55
2022-09-22T00:06:03.222Z,15.50
2022-09-22T00:07:00.274Z,15.50
2022-09-22T00:08:00.414Z,15.50
2022-09-22T00:09:00.826Z,15.50
2022-09-22T00:10:00.291Z,15.50
2022-09-22T00:11:01.714Z,15.45
2022-09-22T00:12:00.420Z,15.45
2022-09-22T00:13:00.295Z,15.45
2022-09-22T00:14:02.110Z,15.45
2022-09-22T00:15:00.288Z,15.45
2022-09-22T00:16:00.591Z,15.38
2022-09-22T00:17:00.969Z,15.38
2022-09-22T00:18:00.281Z,15.38
2022-09-22T00:19:00.309Z,15.38
2022-09-22T00:20:00.417Z,15.38
2022-09-22T00:21:04.673Z,15.32
2022-09-22T00:22:00.353Z,15.32
2022-09-22T00:23:00.286Z,15.32
2022-09-22T00:24:01.115Z,15.32
2022-09-22T00:25:00.285Z,15.32
2022-09-22T00:26:03.758Z,15.31
2022-09-22T00:27:02.169Z,15.31
2022-09-22T00:28:00.438Z,15.31
2022-09-22T00:29:00.436Z,15.31
2022-09-22T00:30:00.281Z,15.31
2022-09-22T00:31:03.206Z,15.29
2022-09-22T00:32:06.338Z,15.29
2022-09-22T00:33:00.338Z,15.29
2022-09-22T00:34:00.416Z,15.29
2022-09-22T00:35:00.308Z,15.29
2022-09-22T00:36:01.171Z,15.25
2022-09-22T00:37:00.267Z,15.25
2022-09-22T00:38:00.302Z,15.25
2022-09-22T00:39:00.513Z,15.25
2022-09-22T00:40:00.575Z,15.25
2022-09-22T00:41:00.959Z,15.21
2022-09-22T00:42:00.276Z,15.21
2022-09-22T00:43:10.169Z,15.21
2022-09-22T00:44:10.166Z,15.21
2022-09-22T00:45:00.330Z,15.21
2022-09-22T00:46:03.337Z,15.16
2022-09-22T00:47:10.213Z,15.16
2022-09-22T00:48:00.328Z,15.16
2022-09-22T00:49:02.326Z,15.16
2022-09-22T00:50:10.167Z,15.16
2022-09-22T00:51:02.208Z,15.11
2022-09-22T00:52:00.494Z,15.11
2022-09-22T00:53:04.881Z,15.11
2022-09-22T00:54:03.367Z,15.11
2022-09-22T00:55:02.174Z,15.11
2022-09-22T00:56:04.817Z,15.05
2022-09-22T00:57:06.742Z,15.05
2022-09-22T00:58:01.642Z,15.05
2022-09-22T00:59:04.120Z,15.05
2022-09-22T01:00:02.445Z,15.05
2022-09-22T01:01:00.673Z,14.98
2022-09-22T01:02:00.341Z,14.98
2022-09-22T01:03:02.115Z,14.98
2022-09-22T01:04:00.360Z,14.98
2022-09-22T01:05:00.341Z,14.98
2022-09-22T01:06:01.865Z,14.93
2022-09-22T01:07:01.656Z,14.93
2022-09-22T01:08:01.319Z,14.93
2022-09-22T01:09:00.968Z,14.93
2022-09-22T01:10:00.396Z,14.93
2022-09-22T01:11:00.803Z,14.89
2022-09-22T01:12:01.702Z,14.89
2022-09-22T01:13:00.258Z,14.89
2022-09-22T01:14:10.177Z,14.89
2022-09-22T01:15:10.183Z,14.89
2022-09-22T01:16:10.202Z,14.80
2022-09-22T01:17:01.250Z,14.80
2022-09-22T01:18:10.172Z,14.80
2022-09-22T01:19:10.173Z,14.80
2022-09-22T01:20:01.305Z,14.80
2022-09-22T01:21:10.172Z,14.73
2022-09-22T01:22:10.175Z,14.73
2022-09-22T01:23:00.260Z,14.73
2022-09-22T01:24:10.172Z,14.73
2022-09-22T01:25:03.579Z,14.73
2022-09-22T01:26:03.589Z,14.69
2022-09-22T01:27:10.189Z,14.69
2022-09-22T01:28:00.251Z,14.69
2022-09-22T01:29:10.178Z,14.69
2022-09-22T01:30:10.186Z,14.69
2022-09-22T01:31:01.361Z,14.62
2022-09-22T01:32:04.656Z,14.62
2022-09-22T01:33:10.169Z,14.62
2022-09-22T01:34:10.173Z,14.62
2022-09-22T01:35:10.307Z,14.62
2022-09-22T01:36:10.173Z,14.56
2022-09-22T01:37:05.535Z,14.56
2022-09-22T01:38:05.099Z,14.56
2022-09-22T01:39:04.074Z,14.56
2022-09-22T01:40:04.687Z,14.56
2022-09-22T01:41:03.975Z,14.49
2022-09-22T01:42:03.561Z,14.49
2022-09-22T01:43:07.621Z,14.49
2022-09-22T01:44:02.825Z,14.49
2022-09-22T01:45:09.097Z,14.49
2022-09-22T01:46:03.816Z,14.39
2022-09-22T01:47:03.344Z,14.39
2022-09-22T01:48:06.948Z,14.39
2022-09-22T01:49:03.867Z,14.39
2022-09-22T01:50:05.326Z,14.39
2022-09-22T01:51:04.443Z,14.36
2022-09-22T01:52:03.266Z,14.36
2022-09-22T01:53:04.506Z,14.36
2022-09-22T01:54:03.983Z,14.36
2022-09-22T01:55:04.313Z,14.36
2022-09-22T01:56:02.860Z,14.31
2022-09-22T01:57:04.574Z,14.31
2022-09-22T01:58:04.322Z,14.31
2022-09-22T01:59:02.136Z,14.31
2022-09-22T02:00:01.851Z,14.31
2022-09-22T02:01:10.837Z,14.29
2022-09-22T02:02:02.620Z,14.29
2022-09-22T02:03:05.643Z,14.29
2022-09-22T02:04:05.041Z,14.29
2022-09-22T02:05:03.970Z,14.29
2022-09-22T02:06:03.419Z,14.26
2022-09-22T02:07:04.028Z,14.26
2022-09-22T02:08:03.125Z,14.26
2022-09-22T02:09:03.521Z,14.26
2022-09-22T02:10:04.397Z,14.26
2022-09-22T02:11:02.392Z,14.22
2022-09-22T02:12:00.792Z,14.22
2022-09-22T02:13:00.409Z,14.22
2022-09-22T02:14:01.441Z,14.22
2022-09-22T02:15:00.307Z,14.22
2022-09-22T02:16:00.559Z,14.17
2022-09-22T02:17:00.389Z,14.17
2022-09-22T02:18:02.245Z,14.17
2022-09-22T02:19:13.031Z,14.17
2022-09-22T02:20:00.397Z,14.17
2022-09-22T02:21:01.070Z,14.14
2022-09-22T02:22:00.278Z,14.14
2022-09-22T02:23:00.270Z,14.14
2022-09-22T02:24:00.405Z,14.14
2022-09-22T02:25:00.366Z,14.14
2022-09-22T02:26:01.919Z,14.10
2022-09-22T02:27:02.646Z,14.10
2022-09-22T02:28:00.440Z,14.10
2022-09-22T02:29:03.937Z,14.10
2022-09-22T02:30:04.227Z,14.10
2022-09-22T02:31:19.570Z,14.03
2022-09-22T02:32:02.922Z,14.03
2022-09-22T02:33:00.616Z,14.03
2022-09-22T02:34:00.573Z,14.03
2022-09-22T02:35:00.620Z,14.03
2022-09-22T02:36:05.917Z,13.97
2022-09-22T02:37:10.172Z,13.97
2022-09-22T02:38:10.167Z,13.97
2022-09-22T02:39:07.646Z,13.97
2022-09-22T02:40:06.165Z,13.97
2022-09-22T02:41:05.852Z,13.93
2022-09-22T02:42:09.221Z,13.93
2022-09-22T02:43:05.166Z,13.93
2022-09-22T02:44:03.609Z,13.93
2022-09-22T02:45:10.212Z,13.93
2022-09-22T02:46:01.372Z,13.90
2022-09-22T02:47:08.886Z,13.90
2022-09-22T02:48:03.587Z,13.90
2022-09-22T02:49:02.377Z,13.90
2022-09-22T02:50:01.748Z,13.90
2022-09-22T02:51:00.477Z,13.88
2022-09-22T02:52:00.766Z,13.88
2022-09-22T02:53:02.192Z,13.88
2022-09-22T02:54:00.394Z,13.88
2022-09-22T02:55:00.338Z,13.88
2022-09-22T02:56:00.583Z,13.89
2022-09-22T02:57:00.302Z,13.89
2022-09-22T02:58:00.313Z,13.89
2022-09-22T02:59:00.282Z,13.89
2022-09-22T03:00:00.570Z,13.89
2022-09-22T03:01:00.356Z,13.89
2022-09-22T03:02:00.363Z,13.89
2022-09-22T03:03:00.346Z,13.89
2022-09-22T03:04:00.367Z,13.89
2022-09-22T03:05:00.485Z,13.89
2022-09-22T03:06:00.314Z,13.91
2022-09-22T03:07:00.288Z,13.91
2022-09-22T03:08:00.382Z,13.91
2022-09-22T03:09:00.371Z,13.91
2022-09-22T03:10:00.333Z,13.91
2022-09-22T03:11:00.294Z,13.92
2022-09-22T03:12:00.417Z,13.92
2022-09-22T03:13:15.906Z,13.92
2022-09-22T03:14:00.260Z,13.92
2022-09-22T03:15:00.280Z,13.92
2022-09-22T03:16:00.469Z,13.92
2022-09-22T03:17:00.405Z,13.92
2022-09-22T03:18:00.283Z,13.92
2022-09-22T03:19:00.279Z,13.92
2022-09-22T03:20:00.384Z,13.92
2022-09-22T03:21:00.266Z,13.87
2022-09-22T03:22:00.316Z,13.87
2022-09-22T03:23:00.269Z,13.87
2022-09-22T03:24:00.417Z,13.87
2022-09-22T03:25:00.291Z,13.87
2022-09-22T03:26:00.290Z,13.84
2022-09-22T03:27:00.286Z,13.84
2022-09-22T03:28:00.407Z,13.84
2022-09-22T03:29:00.368Z,13.84
2022-09-22T03:30:00.318Z,13.84
2022-09-22T03:31:00.378Z,13.84
2022-09-22T03:32:00.389Z,13.84
2022-09-22T03:33:00.287Z,13.84
2022-09-22T03:34:00.274Z,13.84
2022-09-22T03:35:00.309Z,13.84
2022-09-22T03:36:00.362Z,13.83
2022-09-22T03:37:00.271Z,13.83
2022-09-22T03:38:00.454Z,13.83
2022-09-22T03:39:00.620Z,13.83
2022-09-22T03:40:00.802Z,13.83
2022-09-22T03:41:00.269Z,13.82
2022-09-22T03:42:00.266Z,13.82
2022-09-22T03:43:00.273Z,13.82
2022-09-22T03:44:00.375Z,13.82
2022-09-22T03:45:00.263Z,13.82
2022-09-22T03:46:01.190Z,13.83
2022-09-22T03:47:00.385Z,13.83
2022-09-22T03:48:00.386Z,13.83
2022-09-22T03:49:00.311Z,13.83
2022-09-22T03:50:00.312Z,13.83
2022-09-22T03:51:00.278Z,13.82
2022-09-22T03:52:00.499Z,13.82
2022-09-22T03:53:00.266Z,13.82
2022-09-22T03:54:00.340Z,13.82
2022-09-22T03:55:00.299Z,13.82
2022-09-22T03:56:05.133Z,13.82
2022-09-22T03:57:00.290Z,13.82
2022-09-22T03:58:00.357Z,13.82
2022-09-22T03:59:00.321Z,13.82
2022-09-22T04:00:00.503Z,13.82
2022-09-22T04:01:00.328Z,13.81
2022-09-22T04:02:00.439Z,13.81
2022-09-22T04:03:00.287Z,13.81
2022-09-22T04:04:00.458Z,13.81
2022-09-22T04:05:00.316Z,13.81
2022-09-22T04:06:00.450Z,13.80
2022-09-22T04:07:06.125Z,13.80
2022-09-22T04:08:00.427Z,13.80
2022-09-22T04:09:00.400Z,13.80
2022-09-22T04:10:00.562Z,13.80
2022-09-22T04:11:00.577Z,13.80
2022-09-22T04:12:00.452Z,13.80
2022-09-22T04:13:00.273Z,13.80
2022-09-22T04:14:00.291Z,13.80
2022-09-22T04:15:00.285Z,13.80
2022-09-22T04:16:00.860Z,13.80
2022-09-22T04:17:00.370Z,13.80
2022-09-22T04:18:00.274Z,13.80
2022-09-22T04:19:00.651Z,13.80
2022-09-22T04:20:00.382Z,13.80
2022-09-22T04:21:00.274Z,13.75
2022-09-22T04:22:01.077Z,13.75
2022-09-22T04:23:00.333Z,13.75
2022-09-22T04:24:00.379Z,13.75
2022-09-22T04:25:00.292Z,13.75
2022-09-22T04:26:00.296Z,13.73
2022-09-22T04:27:20.105Z,13.73
2022-09-22T04:28:05.347Z,13.73
2022-09-22T04:29:00.357Z,13.73
2022-09-22T04:30:00.276Z,13.73
2022-09-22T04:31:00.358Z,13.70
2022-09-22T04:32:00.456Z,13.70
2022-09-22T04:33:00.312Z,13.70
2022-09-22T04:34:04.164Z,13.70
2022-09-22T04:35:00.303Z,13.70
2022-09-22T04:36:00.429Z,13.66
2022-09-22T04:37:00.274Z,13.66
2022-09-22T04:38:00.286Z,13.66
2022-09-22T04:39:00.375Z,13.66
2022-09-22T04:40:00.379Z,13.66
2022-09-22T04:41:00.314Z,13.63
2022-09-22T04:42:00.301Z,13.63
2022-09-22T04:43:00.314Z,13.63
2022-09-22T04:44:00.416Z,13.63
2022-09-22T04:45:00.283Z,13.63
2022-09-22T04:46:00.321Z,13.60
2022-09-22T04:47:00.267Z,13.60
2022-09-22T04:48:00.777Z,13.60
2022-09-22T04:49:00.277Z,13.60
2022-09-22T04:50:00.311Z,13.60
2022-09-22T04:51:00.288Z,13.56
2022-09-22T04:52:00.388Z,13.56
2022-09-22T04:53:00.287Z,13.56
2022-09-22T04:54:00.518Z,13.56
2022-09-22T04:55:00.286Z,13.56
2022-09-22T04:56:00.416Z,13.53
2022-09-22T04:57:00.463Z,13.53
2022-09-22T04:58:00.372Z,13.53
2022-09-22T04:59:00.389Z,13.53
2022-09-22T05:00:00.455Z,13.53
2022-09-22T05:01:01.163Z,13.50
2022-09-22T05:02:00.301Z,13.50
2022-09-22T05:03:00.376Z,13.50
2022-09-22T05:04:00.404Z,13.50
2022-09-22T05:05:00.702Z,13.50
2022-09-22T05:06:00.259Z,13.47
2022-09-22T05:07:00.307Z,13.47
2022-09-22T05:08:00.357Z,13.47
2022-09-22T05:09:00.358Z,13.47
2022-09-22T05:10:00.643Z,13.47
2022-09-22T05:11:00.371Z,13.44
2022-09-22T05:12:00.379Z,13.44
2022-09-22T05:13:00.547Z,13.44
2022-09-22T05:14:00.318Z,13.44
2022-09-22T05:15:00.284Z,13.44
2022-09-22T05:16:00.385Z,13.44
2022-09-22T05:17:01.216Z,13.44
2022-09-22T05:18:00.291Z,13.44
2022-09-22T05:19:00.299Z,13.44
2022-09-22T05:20:00.591Z,13.44
2022-09-22T05:21:00.609Z,13.40
2022-09-22T05:22:00.334Z,13.40
2022-09-22T05:23:00.274Z,13.40
2022-09-22T05:24:00.508Z,13.40
2022-09-22T05:25:00.304Z,13.40
2022-09-22T05:26:00.295Z,13.40
2022-09-22T05:27:00.289Z,13.40
2022-09-22T05:28:00.396Z,13.40
2022-09-22T05:29:00.306Z,13.40
2022-09-22T05:30:00.309Z,13.40
2022-09-22T05:31:00.328Z,13.38
2022-09-22T05:32:00.502Z,13.38
2022-09-22T05:33:00.312Z,13.38
2022-09-22T05:34:00.273Z,13.38
2022-09-22T05:35:00.350Z,13.38
2022-09-22T05:36:00.352Z,13.35
2022-09-22T05:37:00.277Z,13.35
2022-09-22T05:38:00.298Z,13.35
2022-09-22T05:39:00.385Z,13.35
2022-09-22T05:40:00.420Z,13.35
2022-09-22T05:41:00.317Z,13.32
2022-09-22T05:42:00.284Z,13.32
2022-09-22T05:43:00.336Z,13.32
2022-09-22T05:44:00.440Z,13.32
2022-09-22T05:45:00.280Z,13.32
2022-09-22T05:46:00.401Z,13.22
2022-09-22T05:47:00.292Z,13.22
2022-09-22T05:48:00.444Z,13.22
2022-09-22T05:49:00.311Z,13.22
2022-09-22T05:50:00.346Z,13.22
2022-09-22T05:51:00.361Z,13.13
2022-09-22T05:52:00.423Z,13.13
2022-09-22T05:53:01.232Z,13.13
2022-09-22T05:54:00.326Z,13.13
2022-09-22T05:55:00.435Z,13.13
2022-09-22T05:56:00.431Z,13.10
2022-09-22T05:57:00.270Z,13.10
2022-09-22T05:58:00.598Z,13.10
2022-09-22T05:59:00.402Z,13.10
2022-09-22T06:00:00.489Z,13.10
2022-09-22T06:01:00.402Z,13.04
2022-09-22T06:02:01.651Z,13.04
2022-09-22T06:03:00.443Z,13.04
2022-09-22T06:04:00.377Z,13.04
2022-09-22T06:05:00.587Z,13.04
2022-09-22T06:06:00.289Z,13.04
2022-09-22T06:07:00.265Z,13.04
2022-09-22T06:08:01.687Z,13.04
2022-09-22T06:09:00.363Z,13.04
2022-09-22T06:10:00.385Z,13.04
2022-09-22T06:11:00.310Z,13.06
2022-09-22T06:12:00.393Z,13.06
2022-09-22T06:13:01.253Z,13.06
2022-09-22T06:14:00.308Z,13.06
2022-09-22T06:15:00.305Z,13.06
2022-09-22T06:16:00.954Z,13.13
2022-09-22T06:17:00.290Z,13.13
2022-09-22T06:18:01.042Z,13.13
2022-09-22T06:19:00.919Z,13.13
2022-09-22T06:20:00.460Z,13.13
2022-09-22T06:21:00.281Z,13.17
2022-09-22T06:22:00.297Z,13.17
2022-09-22T06:23:00.618Z,13.17
2022-09-22T06:24:00.454Z,13.17
2022-09-22T06:25:00.279Z,13.17
2022-09-22T06:26:00.280Z,13.22
2022-09-22T06:27:00.295Z,13.22
2022-09-22T06:28:01.096Z,13.22
2022-09-22T06:29:00.275Z,13.22
2022-09-22T06:30:00.267Z,13.22
2022-09-22T06:31:00.561Z,13.23
2022-09-22T06:32:00.462Z,13.23
2022-09-22T06:33:00.471Z,13.23
2022-09-22T06:34:03.199Z,13.23
2022-09-22T06:35:00.259Z,13.23
2022-09-22T06:36:00.372Z,13.26
2022-09-22T06:37:00.292Z,13.26
2022-09-22T06:38:00.270Z,13.26
2022-09-22T06:39:00.565Z,13.26
2022-09-22T06:40:00.398Z,13.26
2022-09-22T06:41:00.390Z,13.29
2022-09-22T06:42:00.268Z,13.29
2022-09-22T06:43:00.297Z,13.29
2022-09-22T06:44:00.396Z,13.29
2022-09-22T06:45:00.270Z,13.29
2022-09-22T06:46:00.391Z,13.33
2022-09-22T06:47:02.288Z,13.33
2022-09-22T06:48:00.454Z,13.33
2022-09-22T06:49:00.264Z,13.33
2022-09-22T06:50:00.266Z,13.33
2022-09-22T06:51:00.285Z,13.35
2022-09-22T06:52:00.521Z,13.35
2022-09-22T06:53:01.121Z,13.35
2022-09-22T06:54:02.859Z,13.35
2022-09-22T06:55:00.301Z,13.35
2022-09-22T06:56:01.560Z,13.41
2022-09-22T06:57:00.274Z,13.41
2022-09-22T06:58:00.297Z,13.41
2022-09-22T06:59:10.184Z,13.41
2022-09-22T07:00:00.485Z,13.41
2022-09-22T07:01:00.409Z,13.47
2022-09-22T07:02:00.400Z,13.47
2022-09-22T07:03:01.276Z,13.47
2022-09-22T07:04:00.364Z,13.47
2022-09-22T07:05:00.277Z,13.47
2022-09-22T07:06:01.270Z,13.58
2022-09-22T07:07:00.870Z,13.58
2022-09-22T07:08:00.470Z,13.58
2022-09-22T07:09:00.360Z,13.58
2022-09-22T07:10:00.331Z,13.58
2022-09-22T07:11:01.883Z,13.69
2022-09-22T07:12:00.390Z,13.69
2022-09-22T07:13:00.279Z,13.69
2022-09-22T07:14:00.280Z,13.69
2022-09-22T07:15:00.273Z,13.69
2022-09-22T07:16:01.046Z,13.82
2022-09-22T07:17:00.301Z,13.82
2022-09-22T07:18:00.286Z,13.82
2022-09-22T07:19:00.295Z,13.82
2022-09-22T07:20:00.362Z,13.82
2022-09-22T07:21:01.177Z,13.96
2022-09-22T07:22:00.274Z,13.96
2022-09-22T07:23:00.558Z,13.96
2022-09-22T07:24:00.422Z,13.96
2022-09-22T07:25:00.277Z,13.96
2022-09-22T07:26:01.070Z,14.08
2022-09-22T07:27:00.304Z,14.08
2022-09-22T07:28:00.601Z,14.08
2022-09-22T07:29:01.567Z,14.08
2022-09-22T07:30:00.273Z,14.08
2022-09-22T07:31:04.904Z,14.21
2022-09-22T07:32:00.472Z,14.21
2022-09-22T07:33:00.277Z,14.21
2022-09-22T07:34:00.454Z,14.21
2022-09-22T07:35:00.690Z,14.21
2022-09-22T07:36:00.274Z,14.31
2022-09-22T07:37:00.302Z,14.31
2022-09-22T07:38:00.274Z,14.31
2022-09-22T07:39:03.421Z,14.31
2022-09-22T07:40:00.348Z,14.31
2022-09-22T07:41:00.303Z,14.39
2022-09-22T07:42:00.266Z,14.39
2022-09-22T07:43:00.283Z,14.39
2022-09-22T07:44:00.381Z,14.39
2022-09-22T07:45:00.297Z,14.39
2022-09-22T07:46:00.698Z,14.48
2022-09-22T07:47:01.418Z,14.48
2022-09-22T07:48:00.371Z,14.48
2022-09-22T07:49:00.270Z,14.48
2022-09-22T07:50:00.318Z,14.48
2022-09-22T07:51:00.298Z,14.53
2022-09-22T07:52:00.287Z,14.53
2022-09-22T07:53:00.272Z,14.53
2022-09-22T07:54:00.423Z,14.53
2022-09-22T07:55:00.321Z,14.53
2022-09-22T07:56:02.748Z,14.65
2022-09-22T07:57:00.292Z,14.65
2022-09-22T07:58:00.279Z,14.65
2022-09-22T07:59:00.379Z,14.65
2022-09-22T08:00:08.863Z,14.65
2022-09-22T08:01:08.062Z,14.75
2022-09-22T08:02:00.442Z,14.75
2022-09-22T08:03:00.265Z,14.75
2022-09-22T08:04:00.633Z,14.75
2022-09-22T08:05:00.337Z,14.75
2022-09-22T08:06:05.297Z,14.90
2022-09-22T08:07:00.288Z,14.90
2022-09-22T08:08:00.373Z,14.90
2022-09-22T08:09:00.344Z,14.90
2022-09-22T08:10:00.277Z,14.90
2022-09-22T08:11:09.069Z,15.00
2022-09-22T08:12:00.415Z,15.00
2022-09-22T08:13:00.270Z,15.00
2022-09-22T08:14:01.132Z,15.00
2022-09-22T08:15:00.287Z,15.00
2022-09-22T08:16:00.578Z,15.16
2022-09-22T08:17:00.284Z,15.16
2022-09-22T08:18:00.274Z,15.16
2022-09-22T08:19:02.909Z,15.16
2022-09-22T08:20:00.372Z,15.16
2022-09-22T08:21:00.284Z,15.35
2022-09-22T08:22:00.292Z,15.35
2022-09-22T08:23:00.273Z,15.35
2022-09-22T08:24:01.002Z,15.35
2022-09-22T08:25:00.309Z,15.35
2022-09-22T08:26:02.900Z,15.49
2022-09-22T08:27:00.275Z,15.49
2022-09-22T08:28:00.342Z,15.49
2022-09-22T08:29:00.283Z,15.49
2022-09-22T08:30:00.280Z,15.49
2022-09-22T08:31:00.608Z,15.65
2022-09-22T08:32:00.345Z,15.65
2022-09-22T08:33:00.275Z,15.65
2022-09-22T08:34:00.763Z,15.65
2022-09-22T08:35:00.328Z,15.65
2022-09-22T08:36:00.400Z,15.80
2022-09-22T08:37:00.271Z,15.80
2022-09-22T08:38:00.359Z,15.80
2022-09-22T08:39:01.231Z,15.80
2022-09-22T08:40:00.370Z,15.80
2022-09-22T08:41:00.268Z,15.95
2022-09-22T08:42:01.287Z,15.95
2022-09-22T08:43:00.275Z,15.95
2022-09-22T08:44:02.071Z,15.95
2022-09-22T08:45:00.262Z,15.95
2022-09-22T08:46:02.584Z,16.07
2022-09-22T08:47:00.994Z,16.07
2022-09-22T08:48:05.372Z,16.07
2022-09-22T08:49:10.201Z,16.07
2022-09-22T08:50:00.876Z,16.07
2022-09-22T08:51:06.460Z,16.19
2022-09-22T08:52:07.559Z,16.19
2022-09-22T08:53:03.492Z,16.19
2022-09-22T08:54:03.561Z,16.19
2022-09-22T08:55:01.822Z,16.19
2022-09-22T08:56:05.185Z,16.31
2022-09-22T08:57:01.288Z,16.31
2022-09-22T08:58:07.628Z,16.31
2022-09-22T08:59:10.204Z,16.31
2022-09-22T09:00:05.447Z,16.31
2022-09-22T09:01:10.184Z,16.48
2022-09-22T09:02:09.919Z,16.48
2022-09-22T09:03:10.297Z,16.48
2022-09-22T09:04:10.175Z,16.48
2022-09-22T09:05:01.313Z,16.48
2022-09-22T09:06:10.293Z,16.69
2022-09-22T09:07:06.370Z,16.69
2022-09-22T09:08:01.279Z,16.69
2022-09-22T09:09:07.854Z,16.69
2022-09-22T09:10:06.257Z,16.69
2022-09-22T09:11:10.220Z,16.74
2022-09-22T09:12:10.184Z,16.74
2022-09-22T09:13:09.236Z,16.74
2022-09-22T09:14:03.592Z,16.74
2022-09-22T09:15:03.576Z,16.74
2022-09-22T09:16:10.213Z,16.92
2022-09-22T09:17:03.876Z,16.92
2022-09-22T09:18:02.007Z,16.92
2022-09-22T09:19:04.452Z,16.92
2022-09-22T09:20:01.353Z,16.92
2022-09-22T09:21:03.095Z,17.04
2022-09-22T09:22:03.234Z,17.04
2022-09-22T09:23:03.465Z,17.04
2022-09-22T09:25:22.392Z,17.04
2022-09-22T09:26:01.592Z,17.15
2022-09-22T09:27:02.451Z,17.15
2022-09-22T09:28:03.101Z,17.15
2022-09-22T09:29:03.999Z,17.15
2022-09-22T09:30:05.057Z,17.15
2022-09-22T09:31:07.083Z,17.29
2022-09-22T09:32:05.564Z,17.29
2022-09-22T09:33:01.162Z,17.29
2022-09-22T09:34:02.108Z,17.29
2022-09-22T09:35:01.230Z,17.29
2022-09-22T09:36:00.533Z,17.41
2022-09-22T09:37:03.607Z,17.41
2022-09-22T09:38:00.360Z,17.41
2022-09-22T09:39:08.857Z,17.41
2022-09-22T09:40:02.051Z,17.41
2022-09-22T09:41:08.170Z,17.61
2022-09-22T09:42:01.446Z,17.61
2022-09-22T09:43:03.373Z,17.61
2022-09-22T09:44:01.374Z,17.61
2022-09-22T09:45:01.726Z,17.61
2022-09-22T09:46:10.279Z,17.70
2022-09-22T09:47:10.195Z,17.70
2022-09-22T09:48:00.297Z,17.70
2022-09-22T09:49:03.654Z,17.70
2022-09-22T09:50:00.345Z,17.70
2022-09-22T09:51:02.431Z,17.73
2022-09-22T09:52:00.848Z,17.73
2022-09-22T09:53:00.558Z,17.73
2022-09-22T09:54:01.937Z,17.73
2022-09-22T09:55:00.380Z,17.73
2022-09-22T09:56:00.398Z,17.77
2022-09-22T09:57:01.292Z,17.77
2022-09-22T09:58:01.870Z,17.77
2022-09-22T09:59:01.276Z,17.77
2022-09-22T10:00:10.215Z,17.77
2022-09-22T10:01:00.302Z,17.93
2022-09-22T10:02:00.456Z,17.93
2022-09-22T10:03:01.291Z,17.93
2022-09-22T10:04:00.449Z,17.93
2022-09-22T10:05:03.184Z,17.93
2022-09-22T10:06:02.625Z,17.94
2022-09-22T10:07:08.535Z,17.94
2022-09-22T10:08:01.186Z,17.94
2022-09-22T10:09:00.381Z,17.94
2022-09-22T10:10:10.224Z,17.94
2022-09-22T10:11:00.904Z,17.93
2022-09-22T10:12:01.192Z,17.93
2022-09-22T10:13:03.582Z,17.93
2022-09-22T10:14:00.351Z,17.93
2022-09-22T10:15:01.596Z,17.93
2022-09-22T10:16:00.404Z,18.03
2022-09-22T10:17:00.410Z,18.03
2022-09-22T10:18:00.542Z,18.03
2022-09-22T10:19:03.260Z,18.03
2022-09-22T10:20:10.280Z,18.03
2022-09-22T10:21:01.769Z,18.15
2022-09-22T10:22:10.175Z,18.15
2022-09-22T10:23:10.250Z,18.15
2022-09-22T10:24:00.491Z,18.15
2022-09-22T10:25:02.072Z,18.15
2022-09-22T10:26:10.171Z,18.19
2022-09-22T10:27:02.609Z,18.19
2022-09-22T10:28:01.401Z,18.19
2022-09-22T10:29:07.828Z,18.19
2022-09-22T10:30:10.167Z,18.19
2022-09-22T10:31:00.925Z,18.38
2022-09-22T10:32:02.057Z,18.38
2022-09-22T10:33:03.572Z,18.38
2022-09-22T10:34:00.268Z,18.38
2022-09-22T10:35:00.275Z,18.38
2022-09-22T10:36:11.853Z,18.49
2022-09-22T10:37:00.853Z,18.49
2022-09-22T10:38:10.293Z,18.49
2022-09-22T10:39:01.545Z,18.49
2022-09-22T10:40:02.328Z,18.49
2022-09-22T10:41:02.602Z,18.40
2022-09-22T10:42:01.570Z,18.40
2022-09-22T10:43:01.037Z,18.40
2022-09-22T10:44:21.260Z,18.40
2022-09-22T10:45:02.850Z,18.40
2022-09-22T10:46:08.743Z,18.49
2022-09-22T10:47:08.543Z,18.49
2022-09-22T10:48:07.789Z,18.49
2022-09-22T10:49:00.343Z,18.49
2022-09-22T10:50:01.281Z,18.49
2022-09-22T10:51:03.592Z,18.54
2022-09-22T10:52:07.187Z,18.54
2022-09-22T10:53:10.168Z,18.54
2022-09-22T10:54:07.813Z,18.54
2022-09-22T10:55:00.250Z,18.54
2022-09-22T10:56:05.846Z,18.59
2022-09-22T10:57:03.493Z,18.59
2022-09-22T10:58:03.550Z,18.59
2022-09-22T10:59:10.173Z,18.59
2022-09-22T11:00:01.441Z,18.59
2022-09-22T11:01:10.222Z,18.52
2022-09-22T11:02:00.368Z,18.52
2022-09-22T11:03:10.177Z,18.52
2022-09-22T11:04:00.359Z,18.52
2022-09-22T11:05:10.190Z,18.52
2022-09-22T11:06:10.168Z,18.63
2022-09-22T11:07:10.181Z,18.63
2022-09-22T11:08:06.779Z,18.63
2022-09-22T11:09:10.191Z,18.63
2022-09-22T11:10:10.169Z,18.63
2022-09-22T11:11:04.244Z,18.64
2022-09-22T11:12:10.174Z,18.64
2022-09-22T11:13:01.277Z,18.64
2022-09-22T11:14:10.175Z,18.64
2022-09-22T11:15:00.261Z,18.64
2022-09-22T11:16:10.230Z,18.84
2022-09-22T11:17:10.169Z,18.84
2022-09-22T11:18:08.699Z,18.84
2022-09-22T11:19:12.252Z,18.84
2022-09-22T11:20:14.641Z,18.84
2022-09-22T11:21:10.173Z,18.90
2022-09-22T11:22:10.172Z,18.90
2022-09-22T11:23:10.172Z,18.90
2022-09-22T11:24:08.862Z,18.90
2022-09-22T11:29:20.694Z,19.11
2022-09-22T11:30:11.040Z,19.11
2022-09-22T11:31:00.599Z,19.22
2022-09-22T11:32:10.355Z,19.22
2022-09-22T11:33:06.551Z,19.22
2022-09-22T11:34:00.282Z,19.22
2022-09-22T11:35:00.273Z,19.22
2022-09-22T11:36:10.395Z,19.28
2022-09-22T11:37:10.371Z,19.28
2022-09-22T11:38:10.417Z,19.28
2022-09-22T11:39:00.281Z,19.28
2022-09-22T11:40:10.571Z,19.28
2022-09-22T11:41:10.280Z,19.34
2022-09-22T11:42:10.319Z,19.34
2022-09-22T11:43:03.786Z,19.34
2022-09-22T11:44:01.510Z,19.34
2022-09-22T11:45:01.281Z,19.34
2022-09-22T11:46:10.373Z,19.49
2022-09-22T11:47:10.269Z,19.49
2022-09-22T11:48:00.278Z,19.49
2022-09-22T11:49:10.355Z,19.49
2022-09-22T11:50:00.297Z,19.49
2022-09-22T11:51:10.293Z,19.56
2022-09-22T11:52:15.102Z,19.56
2022-09-22T11:53:10.292Z,19.56
2022-09-22T11:54:10.279Z,19.56
2022-09-22T11:55:00.715Z,19.56
2022-09-22T11:56:10.288Z,19.53
2022-09-22T11:57:03.999Z,19.53
2022-09-22T11:58:04.008Z,19.53
2022-09-22T11:59:03.289Z,19.53
2022-09-22T12:00:03.900Z,19.53
2022-09-22T12:01:08.448Z,19.61
2022-09-22T12:02:02.845Z,19.61
2022-09-22T12:03:02.721Z,19.61
2022-09-22T12:04:10.284Z,19.61
2022-09-22T12:05:03.805Z,19.61
2022-09-22T12:06:03.426Z,19.75
2022-09-22T12:07:02.278Z,19.75
2022-09-22T12:08:10.318Z,19.75
2022-09-22T12:09:02.861Z,19.75
2022-09-22T12:10:01.900Z,19.75
2022-09-22T12:11:00.613Z,19.73
2022-09-22T12:12:01.853Z,19.73
2022-09-22T12:13:02.606Z,19.73
2022-09-22T12:14:00.738Z,19.73
2022-09-22T12:15:07.141Z,19.73
2022-09-22T12:16:01.508Z,19.73
2022-09-22T12:17:03.494Z,19.73
2022-09-22T12:18:05.465Z,19.73
2022-09-22T12:19:10.291Z,19.73
2022-09-22T12:20:00.435Z,19.73
2022-09-22T12:21:08.699Z,19.84
2022-09-22T12:22:03.650Z,19.84
2022-09-22T12:23:07.610Z,19.84
2022-09-22T12:24:02.542Z,19.84
2022-09-22T12:25:00.300Z,19.84
2022-09-22T12:26:02.976Z,19.69
2022-09-22T12:27:10.377Z,19.69
2022-09-22T12:28:00.981Z,19.69
2022-09-22T12:29:01.605Z,19.69
2022-09-22T12:30:02.214Z,19.69
2022-09-22T12:31:10.452Z,19.65
2022-09-22T12:32:00.424Z,19.65
2022-09-22T12:33:00.377Z,19.65
2022-09-22T12:34:00.947Z,19.65
2022-09-22T12:35:00.880Z,19.65
2022-09-22T12:36:01.193Z,19.91
2022-09-22T12:37:10.295Z,19.91
2022-09-22T12:38:01.026Z,19.91
2022-09-22T12:39:10.274Z,19.91
2022-09-22T12:40:05.718Z,19.91
2022-09-22T12:41:00.820Z,19.96
2022-09-22T12:42:04.841Z,19.96
2022-09-22T12:43:00.489Z,19.96
2022-09-22T12:44:10.312Z,19.96
2022-09-22T12:45:10.377Z,19.96
2022-09-22T12:46:03.576Z,20.20
2022-09-22T12:47:02.916Z,20.20
2022-09-22T12:48:09.777Z,20.20
2022-09-22T12:49:05.640Z,20.20
2022-09-22T12:50:03.881Z,20.20
2022-09-22T12:51:10.309Z,20.33
2022-09-22T12:52:00.386Z,20.33
2022-09-22T12:53:02.236Z,20.33
2022-09-22T12:54:10.422Z,20.33
2022-09-22T12:55:10.395Z,20.33
2022-09-22T12:56:10.335Z,20.24
2022-09-22T12:57:02.638Z,20.24